sensor_id;sensor_type;location;lat;lon;timestamp;pressure;altitude;pressure_sealevel;temperature;humidity
61500;BME280;47361;49.996;19.918;2023-04-20T00:00:21;98892.69;;;8.3;85
61500;BME280;47361;49.996;19.918;2023-04-20T00:01:21;98897.03;;;8.4;85
61500;BME280;47361;49.996;19.918;2023-04-20T00:03:21;98890.97;;;8.3;85
61500;BME280;47361;49.996;19.918;2023-04-20T00:06:21;98890.41;;;8.4;85
61500;BME280;47361;49.996;19.918;2023-04-20T00:07:22;98892.39;;;8.3;85
61500;BME280;47361;49.996;19.918;2023-04-20T00:11:21;98894.79;;;8.4;84
61500;BME280;47361;49.996;19.918;2023-04-20T00:13:21;98897.13;;;8.3;85
61500;BME280;47361;49.996;19.918;2023-04-20T00:19:21;98883.84;;;8.2;85
61500;BME280;47361;49.996;19.918;2023-04-20T00:21:21;98885.85;;;8.3;85
61500;BME280;47361;49.996;19.918;2023-04-20T00:22:21;98887.01;;;8.2;85
61500;BME280;47361;49.996;19.918;2023-04-20T00:24:21;98883.84;;;8.1;85
61500;BME280;47361;49.996;19.918;2023-04-20T00:36:22;98879.11;;;8.2;85
61500;BME280;47361;49.996;19.918;2023-04-20T00:41:21;98881.0;;;8.3;85
61500;BME280;47361;49.996;19.918;2023-04-20T00:42:21;98877.39;;;8.4;85
61500;BME280;47361;49.996;19.918;2023-04-20T00:46:21;98876.39;;;8.5;84
61500;BME280;47361;49.996;19.918;2023-04-20T00:49:22;98873.89;;;8.4;84
61500;BME280;47361;49.996;19.918;2023-04-20T00:51:21;98875.81;;;8.5;84
61500;BME280;47361;49.996;19.918;2023-04-20T00:53:21;98876.53;;;8.4;84
61500;BME280;47361;49.996;19.918;2023-04-20T00:57:21;98877.8;;;8.3;84
61500;BME280;47361;49.996;19.918;2023-04-20T01:00:22;98885.41;;;8.4;85
61500;BME280;47361;49.996;19.918;2023-04-20T01:06:21;98886.77;;;8.5;84
61500;BME280;47361;49.996;19.918;2023-04-20T01:11:21;98887.19;;;8.6;84
61500;BME280;47361;49.996;19.918;2023-04-20T01:12:21;98886.35;;;8.5;84
61500;BME280;47361;49.996;19.918;2023-04-20T01:16:21;98881.44;;;8.6;83
61500;BME280;47361;49.996;19.918;2023-04-20T01:17:21;98885.85;;;8.5;84
61500;BME280;47361;49.996;19.918;2023-04-20T01:20:22;98879.06;;;8.4;84
61500;BME280;47361;49.996;19.918;2023-04-20T01:21:21;98881.96;;;8.5;84
61500;BME280;47361;49.996;19.918;2023-04-20T01:22:21;98883.89;;;8.4;84
61500;BME280;47361;49.996;19.918;2023-04-20T01:26:22;98885.61;;;8.5;84
61500;BME280;47361;49.996;19.918;2023-04-20T01:28:21;98884.25;;;8.4;84
61500;BME280;47361;49.996;19.918;2023-04-20T01:34:22;98885.5;;;8.3;84
61500;BME280;47361;49.996;19.918;2023-04-20T01:36:21;98886.72;;;8.4;84
61500;BME280;47361;49.996;19.918;2023-04-20T01:37:21;98880.45;;;8.3;84
61500;BME280;47361;49.996;19.918;2023-04-20T01:51:21;98879.88;;;8.4;84
61500;BME280;47361;49.996;19.918;2023-04-20T01:52:21;98881.1;;;8.3;84
61500;BME280;47361;49.996;19.918;2023-04-20T01:54:21;98874.11;;;8.4;85
61500;BME280;47361;49.996;19.918;2023-04-20T01:56:21;98880.95;;;8.5;84
61500;BME280;47361;49.996;19.918;2023-04-20T01:59:21;98876.0;;;8.4;84
61500;BME280;47361;49.996;19.918;2023-04-20T02:00:22;98879.45999999999;;;8.5;84
61500;BME280;47361;49.996;19.918;2023-04-20T02:03:22;98875.67;;;8.4;84
61500;BME280;47361;49.996;19.918;2023-04-20T02:08:21;98864.45;;;8.3;84
61500;BME280;47361;49.996;19.918;2023-04-20T02:12:21;98866.42;;;8.2;85
61500;BME280;47361;49.996;19.918;2023-04-20T02:19:22;98865.42;;;8.1;85
61500;BME280;47361;49.996;19.918;2023-04-20T02:20:21;98870.43;;;8.2;85
61500;BME280;47361;49.996;19.918;2023-04-20T02:32:22;98870.76;;;8.1;85
61500;BME280;47361;49.996;19.918;2023-04-20T02:36:21;98872.99;;;8.2;85
61500;BME280;47361;49.996;19.918;2023-04-20T02:37:21;98873.55;;;8.1;85
61500;BME280;47361;49.996;19.918;2023-04-20T02:54:22;98877.29000000001;;;8.0;86
61500;BME280;47361;49.996;19.918;2023-04-20T02:55:21;98877.81;;;8.1;86
61500;BME280;47361;49.996;19.918;2023-04-20T03:03:21;98878.94;;;8.2;87
61500;BME280;47361;49.996;19.918;2023-04-20T03:05:22;98875.89;;;8.3;87
61500;BME280;47361;49.996;19.918;2023-04-20T03:06:21;98878.05;;;8.4;86
61500;BME280;47361;49.996;19.918;2023-04-20T03:08:21;98879.97;;;8.5;86
61500;BME280;47361;49.996;19.918;2023-04-20T03:10:22;98880.46;;;8.6;85
61500;BME280;47361;49.996;19.918;2023-04-20T03:15:21;98877.94;;;8.7;84
61500;BME280;47361;49.996;19.918;2023-04-20T03:17:22;98877.51;;;8.8;84
61500;BME280;47361;49.996;19.918;2023-04-20T03:18:21;98879.64;;;8.7;84
61500;BME280;47361;49.996;19.918;2023-04-20T03:19:22;98881.17;;;8.8;84
61500;BME280;47361;49.996;19.918;2023-04-20T03:35:22;98880.62999999999;;;8.9;82
61500;BME280;47361;49.996;19.918;2023-04-20T03:37:21;98879.47;;;8.8;82
61500;BME280;47361;49.996;19.918;2023-04-20T03:42:22;98882.24;;;8.7;82
61500;BME280;47361;49.996;19.918;2023-04-20T03:44:21;98885.75;;;8.6;82
61500;BME280;47361;49.996;19.918;2023-04-20T03:45:21;98885.39;;;8.7;82
61500;BME280;47361;49.996;19.918;2023-04-20T03:48:22;98888.31;;;8.6;82
61500;BME280;47361;49.996;19.918;2023-04-20T03:52:22;98889.06;;;8.5;82
61500;BME280;47361;49.996;19.918;2023-04-20T03:54:21;98890.88;;;8.4;82
61500;BME280;47361;49.996;19.918;2023-04-20T03:58:21;98893.61;;;8.3;82
61500;BME280;47361;49.996;19.918;2023-04-20T04:00:22;98893.81;;;8.4;83
61500;BME280;47361;49.996;19.918;2023-04-20T04:01:21;98892.61;;;8.3;83
61500;BME280;47361;49.996;19.918;2023-04-20T04:05:23;98902.34;;;8.4;83
61500;BME280;47361;49.996;19.918;2023-04-20T04:08:21;98909.47;;;8.3;83
61500;BME280;47361;49.996;19.918;2023-04-20T04:10:21;98901.06;;;8.4;83
61500;BME280;47361;49.996;19.918;2023-04-20T04:11:22;98907.53;;;8.3;83
61500;BME280;47361;49.996;19.918;2023-04-20T04:13:22;98905.22;;;8.2;84
61500;BME280;47361;49.996;19.918;2023-04-20T04:28:22;98906.45;;;8.1;85
61500;BME280;47361;49.996;19.918;2023-04-20T04:30:22;98907.72;;;8.2;85
61500;BME280;47361;49.996;19.918;2023-04-20T04:32:22;98910.70999999999;;;8.1;85
61500;BME280;47361;49.996;19.918;2023-04-20T04:35:21;98916.31999999999;;;8.2;86
61500;BME280;47361;49.996;19.918;2023-04-20T04:37:22;98910.13;;;8.1;86
61500;BME280;47361;49.996;19.918;2023-04-20T04:40:22;98917.81;;;8.2;86
61500;BME280;47361;49.996;19.918;2023-04-20T04:42:22;98916.57;;;8.1;86
61500;BME280;47361;49.996;19.918;2023-04-20T04:45:22;98917.58;;;8.2;86
61500;BME280;47361;49.996;19.918;2023-04-20T04:46:22;98917.40999999999;;;8.1;86
61500;BME280;47361;49.996;19.918;2023-04-20T05:00:22;98928.5;;;8.2;87
61500;BME280;47361;49.996;19.918;2023-04-20T05:04:22;98935.39;;;8.3;87
61500;BME280;47361;49.996;19.918;2023-04-20T05:05:22;98938.95;;;8.4;87
61500;BME280;47361;49.996;19.918;2023-04-20T05:07:22;98937.83;;;8.5;87
61500;BME280;47361;49.996;19.918;2023-04-20T05:09:22;98942.5;;;8.6;87
61500;BME280;47361;49.996;19.918;2023-04-20T05:10:22;98940.15000000001;;;8.7;87
61500;BME280;47361;49.996;19.918;2023-04-20T05:11:22;98939.4;;;8.8;87
61500;BME280;47361;49.996;19.918;2023-04-20T05:12:22;98943.22;;;8.9;86
61500;BME280;47361;49.996;19.918;2023-04-20T05:14:22;98946.0;;;9.0;86
61500;BME280;47361;49.996;19.918;2023-04-20T05:15:22;98944.05;;;9.1;86
61500;BME280;47361;49.996;19.918;2023-04-20T05:17:22;98946.6;;;9.2;85
61500;BME280;47361;49.996;19.918;2023-04-20T05:20:22;98948.13;;;9.3;84
61500;BME280;47361;49.996;19.918;2023-04-20T05:23:22;98950.31;;;9.4;84
61500;BME280;47361;49.996;19.918;2023-04-20T05:25:22;98952.17;;;9.5;84
61500;BME280;47361;49.996;19.918;2023-04-20T05:29:22;98953.92;;;9.6;83
61500;BME280;47361;49.996;19.918;2023-04-20T05:30:22;98953.08;;;9.7;83
61500;BME280;47361;49.996;19.918;2023-04-20T05:32:22;98950.67;;;9.6;82
61500;BME280;47361;49.996;19.918;2023-04-20T05:34:22;98953.54999999999;;;9.7;82
61500;BME280;47361;49.996;19.918;2023-04-20T05:36:22;98956.16;;;9.8;82
61500;BME280;47361;49.996;19.918;2023-04-20T05:37:22;98952.45;;;9.7;82
61500;BME280;47361;49.996;19.918;2023-04-20T05:39:22;98957.92;;;9.8;82
61500;BME280;47361;49.996;19.918;2023-04-20T05:44:22;98958.04000000001;;;9.9;81
61500;BME280;47361;49.996;19.918;2023-04-20T05:48:22;98958.56;;;10.0;81
61500;BME280;47361;49.996;19.918;2023-04-20T05:50:22;98959.81;;;10.1;80
61500;BME280;47361;49.996;19.918;2023-04-20T05:51:22;98954.01000000001;;;10.0;79
61500;BME280;47361;49.996;19.918;2023-04-20T05:53:22;98956.69;;;9.9;80
61500;BME280;47361;49.996;19.918;2023-04-20T05:57:22;98955.08;;;9.8;79
61500;BME280;47361;49.996;19.918;2023-04-20T06:00:22;98960.28;;;9.9;79
61500;BME280;47361;49.996;19.918;2023-04-20T06:02:22;98961.79;;;9.8;79
61500;BME280;47361;49.996;19.918;2023-04-20T06:04:22;98959.03;;;9.9;79
61500;BME280;47361;49.996;19.918;2023-04-20T06:13:22;98957.81;;;9.8;78
61500;BME280;47361;49.996;19.918;2023-04-20T06:17:22;98951.14;;;9.7;78
61500;BME280;47361;49.996;19.918;2023-04-20T06:18:22;98950.65;;;9.6;78
61500;BME280;47361;49.996;19.918;2023-04-20T06:23:22;98949.75;;;9.7;79
61500;BME280;47361;49.996;19.918;2023-04-20T06:24:22;98949.37999999999;;;9.8;79
61500;BME280;47361;49.996;19.918;2023-04-20T06:27:22;98954.88;;;9.9;79
61500;BME280;47361;49.996;19.918;2023-04-20T06:29:22;98953.47;;;10.0;79
61500;BME280;47361;49.996;19.918;2023-04-20T06:30:22;98950.57;;;10.1;78
61500;BME280;47361;49.996;19.918;2023-04-20T06:32:22;98949.59;;;10.2;79
61500;BME280;47361;49.996;19.918;2023-04-20T06:34:22;98952.37;;;10.3;79
61500;BME280;47361;49.996;19.918;2023-04-20T06:35:22;98951.99;;;10.4;78
61500;BME280;47361;49.996;19.918;2023-04-20T06:40:22;98954.98999999999;;;10.5;77
61500;BME280;47361;49.996;19.918;2023-04-20T06:45:22;98960.33;;;10.6;77
61500;BME280;47361;49.996;19.918;2023-04-20T06:50:22;98959.39;;;10.7;77
61500;BME280;47361;49.996;19.918;2023-04-20T06:54:22;98962.41;;;10.8;76
61500;BME280;47361;49.996;19.918;2023-04-20T06:56:22;98970.06;;;10.9;76
61500;BME280;47361;49.996;19.918;2023-04-20T07:00:22;98956.31;;;11.0;76
61500;BME280;47361;49.996;19.918;2023-04-20T07:04:22;98965.12;;;11.1;75
61500;BME280;47361;49.996;19.918;2023-04-20T07:06:22;98963.78;;;11.2;75
61500;BME280;47361;49.996;19.918;2023-04-20T07:09:22;98964.15;;;11.3;75
61500;BME280;47361;49.996;19.918;2023-04-20T07:10:22;98964.25;;;11.4;74
61500;BME280;47361;49.996;19.918;2023-04-20T07:14:22;98973.55;;;11.5;74
61500;BME280;47361;49.996;19.918;2023-04-20T07:15:22;98974.06999999999;;;11.6;74
61500;BME280;47361;49.996;19.918;2023-04-20T07:19:22;98976.68;;;11.7;73
61500;BME280;47361;49.996;19.918;2023-04-20T07:21:22;98976.4;;;11.6;71
61500;BME280;47361;49.996;19.918;2023-04-20T07:25:22;98976.44;;;11.7;72
61500;BME280;47361;49.996;19.918;2023-04-20T07:28:22;98976.59999999999;;;11.8;73
61500;BME280;47361;49.996;19.918;2023-04-20T07:30:22;98975.12000000001;;;11.9;73
61500;BME280;47361;49.996;19.918;2023-04-20T07:34:22;98973.87999999999;;;12.0;72
61500;BME280;47361;49.996;19.918;2023-04-20T07:37:15;98975.8;;;12.1;72
61500;BME280;47361;49.996;19.918;2023-04-20T07:39:15;98972.38;;;12.2;72
61500;BME280;47361;49.996;19.918;2023-04-20T07:40:15;98975.58;;;12.3;72
61500;BME280;47361;49.996;19.918;2023-04-20T07:41:15;98970.14;;;12.4;72
61500;BME280;47361;49.996;19.918;2023-04-20T07:43:15;98970.17;;;12.5;71
61500;BME280;47361;49.996;19.918;2023-04-20T07:45:15;98967.74;;;12.6;71
61500;BME280;47361;49.996;19.918;2023-04-20T07:46:18;98972.14;;;12.5;70
61500;BME280;47361;49.996;19.918;2023-04-20T07:48:15;98973.49;;;12.4;70
61500;BME280;47361;49.996;19.918;2023-04-20T07:49:15;98971.51;;;12.5;70
61500;BME280;47361;49.996;19.918;2023-04-20T07:52:15;98970.61;;;12.4;69
61500;BME280;47361;49.996;19.918;2023-04-20T07:54:15;98971.57999999999;;;12.5;69
61500;BME280;47361;49.996;19.918;2023-04-20T07:55:15;98973.8;;;12.6;69
61500;BME280;47361;49.996;19.918;2023-04-20T07:59:15;98974.87;;;12.8;69
61500;BME280;47361;49.996;19.918;2023-04-20T08:01:15;98974.19;;;12.9;69
61500;BME280;47361;49.996;19.918;2023-04-20T08:04:15;98980.26999999999;;;12.9;68
61500;BME280;47361;49.996;19.918;2023-04-20T08:08:15;98979.25;;;12.8;67
61500;BME280;47361;49.996;19.918;2023-04-20T08:15:15;98985.77;;;12.9;67
61500;BME280;47361;49.996;19.918;2023-04-20T08:16:15;98987.91;;;12.8;66
61500;BME280;47361;49.996;19.918;2023-04-20T08:24:15;98986.36;;;12.9;67
61500;BME280;47361;49.996;19.918;2023-04-20T08:26:15;98982.48;;;12.8;67
61500;BME280;47361;49.996;19.918;2023-04-20T08:28:15;98983.26;;;12.9;67
61500;BME280;47361;49.996;19.918;2023-04-20T08:44:15;98996.68000000001;;;13.0;67
61500;BME280;47361;49.996;19.918;2023-04-20T08:48:15;98995.34;;;12.9;66
61500;BME280;47361;49.996;19.918;2023-04-20T08:49:15;98996.48999999999;;;13.0;66
61500;BME280;47361;49.996;19.918;2023-04-20T08:50:15;98999.19;;;12.9;66
61500;BME280;47361;49.996;19.918;2023-04-20T08:55:15;98991.06;;;13.0;67
61500;BME280;47361;49.996;19.918;2023-04-20T08:59:15;98994.7;;;13.1;67
61500;BME280;47361;49.996;19.918;2023-04-20T09:00:15;98993.11;;;13.2;67
61500;BME280;47361;49.996;19.918;2023-04-20T09:01:15;98995.42;;;13.3;67
61500;BME280;47361;49.996;19.918;2023-04-20T09:03:15;98997.46;;;13.4;66
61500;BME280;47361;49.996;19.918;2023-04-20T09:05:15;98993.92;;;13.5;66
61500;BME280;47361;49.996;19.918;2023-04-20T09:06:15;98999.76000000001;;;13.4;65
61500;BME280;47361;49.996;19.918;2023-04-20T09:08:15;98994.89;;;13.3;65
61500;BME280;47361;49.996;19.918;2023-04-20T09:11:22;98994.9;;;13.2;66
61500;BME280;47361;49.996;19.918;2023-04-20T09:13:22;98993.19;;;13.3;66
61500;BME280;47361;49.996;19.918;2023-04-20T09:14:15;98995.9;;;13.4;66
61500;BME280;47361;49.996;19.918;2023-04-20T09:19:20;98999.34;;;13.5;66
61500;BME280;47361;49.996;19.918;2023-04-20T09:21:15;99000.12000000001;;;13.6;66
61500;BME280;47361;49.996;19.918;2023-04-20T09:24:15;98998.01;;;13.7;65
61500;BME280;47361;49.996;19.918;2023-04-20T09:27:15;98998.42;;;13.8;66
61500;BME280;47361;49.996;19.918;2023-04-20T09:29:15;99002.91;;;13.9;65
61500;BME280;47361;49.996;19.918;2023-04-20T09:31:16;98995.4;;;14.0;65
61500;BME280;47361;49.996;19.918;2023-04-20T09:43:17;98998.11;;;14.1;64
61500;BME280;47361;49.996;19.918;2023-04-20T09:44:15;98996.67;;;14.2;64
61500;BME280;47361;49.996;19.918;2023-04-20T09:51:15;98992.94;;;14.1;62
61500;BME280;47361;49.996;19.918;2023-04-20T09:57:15;98991.16;;;14.0;62
61500;BME280;47361;49.996;19.918;2023-04-20T10:00:15;98990.20000000001;;;13.9;62
61500;BME280;47361;49.996;19.918;2023-04-20T10:06:17;98990.08;;;13.8;62
61500;BME280;47361;49.996;19.918;2023-04-20T10:09:19;98985.05;;;13.9;63
61500;BME280;47361;49.996;19.918;2023-04-20T10:13:15;98989.92;;;14.0;63
61500;BME280;47361;49.996;19.918;2023-04-20T10:18:15;98984.34;;;14.1;62
61500;BME280;47361;49.996;19.918;2023-04-20T10:27:15;98974.84;;;14.0;63
61500;BME280;47361;49.996;19.918;2023-04-20T10:32:22;98979.78;;;13.9;63
61500;BME280;47361;49.996;19.918;2023-04-20T10:35:15;98974.19;;;13.8;61
61500;BME280;47361;49.996;19.918;2023-04-20T10:36:21;98979.52;;;13.7;62
61500;BME280;47361;49.996;19.918;2023-04-20T10:43:17;98977.19;;;13.8;63
61500;BME280;47361;49.996;19.918;2023-04-20T10:44:15;98976.64;;;13.9;63
61500;BME280;47361;49.996;19.918;2023-04-20T10:48:15;98974.79;;;14.0;63
61500;BME280;47361;49.996;19.918;2023-04-20T10:49:15;98974.77;;;14.1;63
61500;BME280;47361;49.996;19.918;2023-04-20T10:51:15;98972.78;;;14.2;63
61500;BME280;47361;49.996;19.918;2023-04-20T10:52:15;98973.69;;;14.3;63
61500;BME280;47361;49.996;19.918;2023-04-20T10:54:15;98969.64;;;14.4;61
61500;BME280;47361;49.996;19.918;2023-04-20T10:59:15;98964.09;;;14.5;60
61500;BME280;47361;49.996;19.918;2023-04-20T11:01:15;98966.21;;;14.4;59
61500;BME280;47361;49.996;19.918;2023-04-20T11:04:15;98961.11;;;14.5;60
61500;BME280;47361;49.996;19.918;2023-04-20T11:06:15;98964.72;;;14.6;59
61500;BME280;47361;49.996;19.918;2023-04-20T11:13:18;98960.91;;;14.7;61
61500;BME280;47361;49.996;19.918;2023-04-20T11:14:15;98960.31;;;14.8;60
61500;BME280;47361;49.996;19.918;2023-04-20T11:15:15;98955.95;;;14.7;60
61500;BME280;47361;49.996;19.918;2023-04-20T11:19:21;98957.0;;;14.8;60
61500;BME280;47361;49.996;19.918;2023-04-20T11:23:15;98957.08;;;14.9;60
61500;BME280;47361;49.996;19.918;2023-04-20T11:24:16;98959.42;;;15.0;59
61500;BME280;47361;49.996;19.918;2023-04-20T11:26:15;98960.16;;;15.1;60
61500;BME280;47361;49.996;19.918;2023-04-20T11:28:15;98954.42;;;15.3;59
61500;BME280;47361;49.996;19.918;2023-04-20T11:29:25;98954.31999999999;;;15.4;59
61500;BME280;47361;49.996;19.918;2023-04-20T11:30:15;98957.70999999999;;;15.5;59
61500;BME280;47361;49.996;19.918;2023-04-20T11:31:15;98959.77;;;15.6;60
61500;BME280;47361;49.996;19.918;2023-04-20T11:33:23;98956.32;;;15.7;56
61500;BME280;47361;49.996;19.918;2023-04-20T11:34:16;98959.99;;;15.8;57
61500;BME280;47361;49.996;19.918;2023-04-20T11:36:18;98959.64;;;15.9;57
61500;BME280;47361;49.996;19.918;2023-04-20T11:38:24;98953.22;;;16.0;56
61500;BME280;47361;49.996;19.918;2023-04-20T11:41:15;98953.58;;;16.1;56
61500;BME280;47361;49.996;19.918;2023-04-20T11:43:15;98956.29000000001;;;16.2;57
61500;BME280;47361;49.996;19.918;2023-04-20T11:48:15;98954.85;;;16.3;56
61500;BME280;47361;49.996;19.918;2023-04-20T11:49:15;98948.81;;;16.4;55
61500;BME280;47361;49.996;19.918;2023-04-20T11:50:15;98951.58;;;16.5;56
61500;BME280;47361;49.996;19.918;2023-04-20T11:52:15;98952.45;;;16.6;55
61500;BME280;47361;49.996;19.918;2023-04-20T11:53:15;98953.3;;;16.7;55
61500;BME280;47361;49.996;19.918;2023-04-20T11:54:15;98956.61;;;16.8;56
61500;BME280;47361;49.996;19.918;2023-04-20T11:55:15;98948.73999999999;;;16.7;55
61500;BME280;47361;49.996;19.918;2023-04-20T11:57:15;98946.74;;;16.8;54
61500;BME280;47361;49.996;19.918;2023-04-20T12:01:15;98945.4;;;16.9;55
61500;BME280;47361;49.996;19.918;2023-04-20T12:04:15;98943.31;;;17.0;54
61500;BME280;47361;49.996;19.918;2023-04-20T12:06:15;98942.4;;;17.1;55
61500;BME280;47361;49.996;19.918;2023-04-20T12:07:15;98943.48;;;17.2;54
61500;BME280;47361;49.996;19.918;2023-04-20T12:09:15;98946.08;;;17.3;55
61500;BME280;47361;49.996;19.918;2023-04-20T12:10:15;98944.84;;;17.4;55
61500;BME280;47361;49.996;19.918;2023-04-20T12:17:15;98935.06999999999;;;17.5;53
61500;BME280;47361;49.996;19.918;2023-04-20T12:18:15;98938.21;;;17.6;53
61500;BME280;47361;49.996;19.918;2023-04-20T12:20:15;98938.33;;;17.5;51
61500;BME280;47361;49.996;19.918;2023-04-20T12:21:15;98935.86;;;17.4;51
61500;BME280;47361;49.996;19.918;2023-04-20T12:22:15;98932.62;;;17.3;51
61500;BME280;47361;49.996;19.918;2023-04-20T12:23:15;98938.79;;;17.2;50
61500;BME280;47361;49.996;19.918;2023-04-20T12:24:15;98935.19;;;17.1;51
61500;BME280;47361;49.996;19.918;2023-04-20T12:25:15;98932.97;;;17.0;52
61500;BME280;47361;49.996;19.918;2023-04-20T12:27:15;98937.3;;;16.9;53
61500;BME280;47361;49.996;19.918;2023-04-20T12:31:15;98944.05;;;16.8;51
61500;BME280;47361;49.996;19.918;2023-04-20T12:34:15;98944.39;;;16.7;52
61500;BME280;47361;49.996;19.918;2023-04-20T12:35:15;98937.28;;;16.6;51
61500;BME280;47361;49.996;19.918;2023-04-20T12:37:15;98933.86;;;16.5;52
61500;BME280;47361;49.996;19.918;2023-04-20T12:39:15;98940.39;;;16.6;52
61500;BME280;47361;49.996;19.918;2023-04-20T12:40:15;98937.98000000001;;;16.5;52
61500;BME280;47361;49.996;19.918;2023-04-20T12:43:15;98933.28;;;16.6;52
61500;BME280;47361;49.996;19.918;2023-04-20T12:44:15;98931.37000000001;;;16.7;50
61500;BME280;47361;49.996;19.918;2023-04-20T12:45:15;98926.36;;;16.8;51
61500;BME280;47361;49.996;19.918;2023-04-20T12:47:15;98928.08;;;16.9;50
61500;BME280;47361;49.996;19.918;2023-04-20T12:48:15;98928.18;;;17.0;51
61500;BME280;47361;49.996;19.918;2023-04-20T12:49:15;98926.28;;;17.1;51
61500;BME280;47361;49.996;19.918;2023-04-20T12:50:15;98924.58;;;17.2;52
61500;BME280;47361;49.996;19.918;2023-04-20T12:51:15;98922.65;;;17.3;51
61500;BME280;47361;49.996;19.918;2023-04-20T12:52:15;98918.11;;;17.4;50
61500;BME280;47361;49.996;19.918;2023-04-20T12:53:15;98917.85;;;17.5;49
61500;BME280;47361;49.996;19.918;2023-04-20T12:54:15;98921.68000000001;;;17.6;51
61500;BME280;47361;49.996;19.918;2023-04-20T12:55:15;98916.29000000001;;;17.7;51
61500;BME280;47361;49.996;19.918;2023-04-20T12:57:15;98915.52;;;17.8;49
61500;BME280;47361;49.996;19.918;2023-04-20T12:58:15;98913.67;;;17.9;49
61500;BME280;47361;49.996;19.918;2023-04-20T13:02:16;98909.49;;;17.7;47
61500;BME280;47361;49.996;19.918;2023-04-20T13:03:15;98913.26000000001;;;17.8;47
61500;BME280;47361;49.996;19.918;2023-04-20T13:04:15;98911.69;;;17.7;47
61500;BME280;47361;49.996;19.918;2023-04-20T13:05:15;98915.23;;;17.6;49
61500;BME280;47361;49.996;19.918;2023-04-20T13:06:15;98910.6;;;17.5;48
61500;BME280;47361;49.996;19.918;2023-04-20T13:07:15;98910.47;;;17.4;47
61500;BME280;47361;49.996;19.918;2023-04-20T13:11:15;98916.42;;;17.6;51
61500;BME280;47361;49.996;19.918;2023-04-20T13:12:15;98915.20000000001;;;17.7;51
61500;BME280;47361;49.996;19.918;2023-04-20T13:13:15;98911.01999999999;;;17.8;50
61500;BME280;47361;49.996;19.918;2023-04-20T13:14:15;98909.77;;;17.9;49
61500;BME280;47361;49.996;19.918;2023-04-20T13:21:15;98905.5;;;17.8;49
61500;BME280;47361;49.996;19.918;2023-04-20T13:22:15;98906.06;;;17.7;49
61500;BME280;47361;49.996;19.918;2023-04-20T13:23:15;98904.47;;;17.6;48
61500;BME280;47361;49.996;19.918;2023-04-20T13:24:15;98906.53;;;17.5;48
61500;BME280;47361;49.996;19.918;2023-04-20T13:25:15;98905.2;;;17.4;48
61500;BME280;47361;49.996;19.918;2023-04-20T13:26:15;98900.59;;;17.3;49
61500;BME280;47361;49.996;19.918;2023-04-20T13:27:15;98908.01;;;17.2;50
61500;BME280;47361;49.996;19.918;2023-04-20T13:28:15;98907.95000000001;;;17.1;50
61500;BME280;47361;49.996;19.918;2023-04-20T13:30:15;98901.29;;;17.0;50
61500;BME280;47361;49.996;19.918;2023-04-20T13:31:15;98903.7;;;16.9;51
61500;BME280;47361;49.996;19.918;2023-04-20T13:32:15;98906.54;;;16.8;52
61500;BME280;47361;49.996;19.918;2023-04-20T13:33:15;98904.13;;;16.9;53
61500;BME280;47361;49.996;19.918;2023-04-20T13:34:15;98904.25;;;16.8;53
61500;BME280;47361;49.996;19.918;2023-04-20T13:36:15;98906.89;;;16.7;54
61500;BME280;47361;49.996;19.918;2023-04-20T13:38:15;98906.48999999999;;;16.8;55
61500;BME280;47361;49.996;19.918;2023-04-20T13:39:15;98906.12999999999;;;16.7;53
61500;BME280;47361;49.996;19.918;2023-04-20T13:41:15;98905.44;;;16.6;53
61500;BME280;47361;49.996;19.918;2023-04-20T13:44:15;98907.03;;;16.5;53
61500;BME280;47361;49.996;19.918;2023-04-20T13:46:15;98903.85;;;16.4;53
61500;BME280;47361;49.996;19.918;2023-04-20T13:47:15;98907.67;;;16.3;54
61500;BME280;47361;49.996;19.918;2023-04-20T13:48:15;98904.68;;;16.4;54
61500;BME280;47361;49.996;19.918;2023-04-20T13:54:15;98902.78;;;16.5;55
61500;BME280;47361;49.996;19.918;2023-04-20T13:55:15;98903.17;;;16.6;55
61500;BME280;47361;49.996;19.918;2023-04-20T13:58:15;98899.3;;;16.8;54
61500;BME280;47361;49.996;19.918;2023-04-20T14:06:15;98895.7;;;16.9;52
61500;BME280;47361;49.996;19.918;2023-04-20T14:08:15;98893.76999999999;;;17.0;52
61500;BME280;47361;49.996;19.918;2023-04-20T14:13:15;98894.11;;;17.1;53
61500;BME280;47361;49.996;19.918;2023-04-20T14:14:15;98888.95999999999;;;17.2;52
61500;BME280;47361;49.996;19.918;2023-04-20T14:15:15;98887.25;;;17.3;52
61500;BME280;47361;49.996;19.918;2023-04-20T14:18:15;98890.89;;;17.4;51
61500;BME280;47361;49.996;19.918;2023-04-20T14:19:15;98891.16;;;17.5;51
61500;BME280;47361;49.996;19.918;2023-04-20T14:20:15;98887.06;;;17.6;50
61500;BME280;47361;49.996;19.918;2023-04-20T14:21:15;98888.73;;;17.8;50
61500;BME280;47361;49.996;19.918;2023-04-20T14:22:15;98888.0;;;17.9;51
61500;BME280;47361;49.996;19.918;2023-04-20T14:23:15;98888.7;;;18.2;50
61500;BME280;47361;49.996;19.918;2023-04-20T14:24:15;98883.25;;;18.3;49
61500;BME280;47361;49.996;19.918;2023-04-20T14:27:15;98880.19;;;18.2;45
61500;BME280;47361;49.996;19.918;2023-04-20T14:28:15;98884.42;;;18.1;46
61500;BME280;47361;49.996;19.918;2023-04-20T14:31:15;98884.25;;;18.0;47
61500;BME280;47361;49.996;19.918;2023-04-20T14:32:15;98888.93000000001;;;17.9;47
61500;BME280;47361;49.996;19.918;2023-04-20T14:34:15;98883.58;;;17.8;48
61500;BME280;47361;49.996;19.918;2023-04-20T14:36:15;98883.37;;;17.7;49
61500;BME280;47361;49.996;19.918;2023-04-20T14:37:15;98887.41;;;17.6;49
61500;BME280;47361;49.996;19.918;2023-04-20T14:39:17;98887.33;;;17.5;50
61500;BME280;47361;49.996;19.918;2023-04-20T14:40:15;98892.62999999999;;;17.4;50
61500;BME280;47361;49.996;19.918;2023-04-20T14:42:15;98886.56;;;17.3;49
61500;BME280;47361;49.996;19.918;2023-04-20T14:44:15;98891.69;;;17.2;49
61500;BME280;47361;49.996;19.918;2023-04-20T14:45:15;98889.48000000001;;;17.1;49
61500;BME280;47361;49.996;19.918;2023-04-20T14:46:15;98893.4;;;17.0;50
61500;BME280;47361;49.996;19.918;2023-04-20T14:49:15;98890.34;;;16.9;48